Jaigarh — HOPB — position and weather

sailwx.info

Track history (hours):
 
Tides and Currents Weather Stations Pressure Air Temp Water Temp Dewpoint Dewpoint Depression Visibility Wind Speed Wind Dir Waves Ship Positions

Jaigarh

Last reported at 2018-Jul-06 06:48 UTC. Time now 2018-Jul-21 17:36 UTC.
Position S 32°37' E 152°44'.
Warning: this ship's position is 15 days out of date.

Length 229 m; draft 14.4 m.

Type: Cargo ship. MMSI: 356277000.

Date/timePositionNaut miles runAvg speedWind from/ knotsBaromVisibWave heightAir tempDewpointWater temp
2018-Jul-06 06:48S 32°37' E 152°44'310.6
2018-Jul-06 06:30S 32°39' E 152°41'510.4
2018-Jul-06 06:00S 32°42' E 152°36'510.5
2018-Jul-06 05:30S 32°45' E 152°31'510.3
2018-Jul-06 05:00S 32°48' E 152°26'510.3
2018-Jul-06 04:30S 32°50' E 152°21'510.2
2018-Jul-06 04:00S 32°53' E 152°16'510.3
2018-Jul-06 03:30S 32°56' E 152°11'5 9.9
2018-Jul-06 03:00S 32°57' E 152°05'510.0
2018-Jul-06 02:30S 32°58' E 151°59'5 9.8
2018-Jul-06 02:00S 32°58' E 151°53'4 8.3
2018-Jul-06 01:30S 32°56' E 151°49'2 4.8
2018-Jul-06 01:00S 32°55' E 151°47'2 3.5
2018-Jul-06 00:30S 32°53' E 151°46'1 1.2
2018-Jul-05 23:59S 32°53' E 151°45'0 0.0
2018-Jul-05 23:23S 32°53' E 151°45'0 0.0
2018-Jul-05 22:59S 32°53' E 151°45'0 0.0
2018-Jul-05 22:14S 32°53' E 151°45'0 0.0
2018-Jul-05 21:59S 32°53' E 151°45'0 0.0
2018-Jul-05 21:29S 32°53' E 151°45'0 0.0
2018-Jul-05 20:59S 32°53' E 151°45'0 0.0
2018-Jul-05 20:29S 32°53' E 151°45'0 0.0
2018-Jul-05 19:59S 32°53' E 151°45'0 0.0
2018-Jul-05 19:29S 32°53' E 151°45'0 0.0
2018-Jul-05 18:56S 32°53' E 151°45'0 0.0
2018-Jul-05 18:29S 32°53' E 151°45'0 0.0
2018-Jul-05 17:41S 32°53' E 151°45'0 0.0
2018-Jul-05 17:20S 32°53' E 151°45'0 0.0
2018-Jul-05 16:53S 32°53' E 151°45'0 0.0
2018-Jul-05 16:29S 32°53' E 151°45'0 0.0
2018-Jul-05 15:59S 32°53' E 151°45'0 0.0
2018-Jul-05 15:29S 32°53' E 151°45'0 0.0
2018-Jul-05 09:41S 32°53' E 151°45'0 0.0
2018-Jul-05 07:05S 32°53' E 151°45'0 0.0
2018-Jul-05 06:47S 32°53' E 151°45'0 0.0
2018-Jul-05 06:20S 32°53' E 151°45'0 0.0
2018-Jul-05 05:56S 32°53' E 151°45'0 0.0
2018-Jul-05 05:29S 32°53' E 151°45'0 0.0
2018-Jul-05 04:59S 32°53' E 151°45'0 0.0
2018-Jul-05 04:26S 32°53' E 151°45'0 0.0
2018-Jul-05 03:59S 32°53' E 151°45'0 0.0
2018-Jul-05 03:29S 32°53' E 151°45'0 0.0
2018-Jul-05 02:59S 32°53' E 151°45'0 0.0
2018-Jul-05 02:11S 32°53' E 151°45'0 0.0
2018-Jul-05 01:47S 32°53' E 151°45'0 0.0
2018-Jul-05 01:29S 32°53' E 151°45'0 0.0
2018-Jul-05 00:59S 32°53' E 151°45'0 0.0
2018-Jul-05 00:29S 32°53' E 151°45'0 0.0
2018-Jul-04 23:59S 32°53' E 151°45'0 0.0
2018-Jul-04 23:29S 32°53' E 151°45'0 0.0
2018-Jul-04 22:59S 32°53' E 151°45'0 0.0
2018-Jul-04 22:29S 32°53' E 151°45'0 0.0
2018-Jul-04 21:59S 32°53' E 151°45'0 0.0
2018-Jul-04 21:29S 32°53' E 151°45'0 0.0
2018-Jul-04 20:59S 32°53' E 151°45'0 0.0
2018-Jul-04 20:29S 32°53' E 151°45'0 0.0
2018-Jul-04 19:59S 32°53' E 151°45'0 0.0
2018-Jul-04 19:23S 32°53' E 151°45'0 0.0
2018-Jul-04 18:59S 32°53' E 151°45'0 0.0
2018-Jul-04 18:29S 32°53' E 151°45'0 0.0
2018-Jul-04 17:47S 32°53' E 151°45'0 0.0
2018-Jul-04 17:29S 32°53' E 151°45'0 0.0
2018-Jul-04 16:47S 32°53' E 151°45'0 0.0
2018-Jul-04 16:29S 32°53' E 151°45'0 0.0
2018-Jul-04 15:56S 32°53' E 151°45'0 0.0
2018-Jul-04 15:29S 32°53' E 151°45'0 0.0
2018-Jul-04 14:59S 32°53' E 151°45'0 0.0
2018-Jul-04 14:29S 32°53' E 151°45'0 0.0
2018-Jul-04 13:59S 32°53' E 151°45'0 0.0
2018-Jul-04 13:26S 32°53' E 151°45'0 0.0
2018-Jul-04 12:59S 32°53' E 151°45'0 0.0
2018-Jul-04 12:23S 32°53' E 151°45'0 0.0
2018-Jul-04 11:59S 32°53' E 151°45'0 0.0
2018-Jul-04 11:29S 32°53' E 151°45'0 0.0
2018-Jul-04 10:56S 32°53' E 151°45'0 0.0
2018-Jul-04 10:29S 32°53' E 151°45'0 0.0
2018-Jul-04 09:59S 32°53' E 151°45'0 0.0
2018-Jul-04 09:29S 32°53' E 151°45'1 1.6
2018-Jul-04 09:00S 32°53' E 151°46'2 4.1
2018-Jul-04 08:30S 32°55' E 151°48'4 9.0
2018-Jul-04 08:01S 32°58' E 151°52'3 5.9
2018-Jul-04 07:30S 33°01' E 151°52'4 8.3
2018-Jul-04 07:00S 33°05' E 151°52'5 0.9
2018-Jul-04 01:48S 33°08' E 151°56'1 1.9
2018-Jul-04 01:26S 33°07' E 151°57'1 1.9
2018-Jul-04 01:00S 33°07' E 151°57'1 2.0
2018-Jul-04 00:30S 33°06' E 151°58'3 6.0
2018-Jul-03 23:57S 33°02' E 151°58'4 8.4
2018-Jul-03 23:30S 32°59' E 151°58'611.7
2018-Jul-03 23:00S 32°58' E 152°05'612.8
2018-Jul-03 22:30S 32°55' E 152°12'612.9
2018-Jul-03 22:00S 32°52' E 152°19'612.6
2018-Jul-03 21:30S 32°49' E 152°25'612.8
2018-Jul-03 21:00S 32°45' E 152°32'612.6
2018-Jul-03 20:30S 32°41' E 152°37'612.5
2018-Jul-03 20:00S 32°37' E 152°43'612.1
2018-Jul-03 19:29S 32°33' E 152°49'  
Track history (hours):
 
Tides and Currents Weather Stations Pressure Air Temp Water Temp Dewpoint Dewpoint Depression Visibility Wind Speed Wind Dir Waves Ship Positions

Jaigarh

Last reported at 2018-Jul-06 06:48 UTC. Time now 2018-Jul-21 17:36 UTC.
Position S 32°37' E 152°44'.
Warning: this ship's position is 15 days out of date.

Length 229 m; draft 14.4 m.

Type: Cargo ship. MMSI: 356277000.

Date/timePositionNaut miles runAvg speedWind from/ knotsBaromVisibWave heightAir tempDewpointWater temp
2018-Jul-06 06:48S 32°37' E 152°44'310.6
2018-Jul-06 06:30S 32°39' E 152°41'510.4
2018-Jul-06 06:00S 32°42' E 152°36'510.5
2018-Jul-06 05:30S 32°45' E 152°31'510.3
2018-Jul-06 05:00S 32°48' E 152°26'510.3
2018-Jul-06 04:30S 32°50' E 152°21'510.2
2018-Jul-06 04:00S 32°53' E 152°16'510.3
2018-Jul-06 03:30S 32°56' E 152°11'5 9.9
2018-Jul-06 03:00S 32°57' E 152°05'510.0
2018-Jul-06 02:30S 32°58' E 151°59'5 9.8
2018-Jul-06 02:00S 32°58' E 151°53'4 8.3
2018-Jul-06 01:30S 32°56' E 151°49'2 4.8
2018-Jul-06 01:00S 32°55' E 151°47'2 3.5
2018-Jul-06 00:30S 32°53' E 151°46'1 1.2
2018-Jul-05 23:59S 32°53' E 151°45'0 0.0
2018-Jul-05 23:23S 32°53' E 151°45'0 0.0
2018-Jul-05 22:59S 32°53' E 151°45'0 0.0
2018-Jul-05 22:14S 32°53' E 151°45'0 0.0
2018-Jul-05 21:59S 32°53' E 151°45'0 0.0
2018-Jul-05 21:29S 32°53' E 151°45'0 0.0
2018-Jul-05 20:59S 32°53' E 151°45'0 0.0
2018-Jul-05 20:29S 32°53' E 151°45'0 0.0
2018-Jul-05 19:59S 32°53' E 151°45'0 0.0
2018-Jul-05 19:29S 32°53' E 151°45'0 0.0
2018-Jul-05 18:56S 32°53' E 151°45'0 0.0
2018-Jul-05 18:29S 32°53' E 151°45'0 0.0
2018-Jul-05 17:41S 32°53' E 151°45'0 0.0
2018-Jul-05 17:20S 32°53' E 151°45'0 0.0
2018-Jul-05 16:53S 32°53' E 151°45'0 0.0
2018-Jul-05 16:29S 32°53' E 151°45'0 0.0
2018-Jul-05 15:59S 32°53' E 151°45'0 0.0
2018-Jul-05 15:29S 32°53' E 151°45'0 0.0
2018-Jul-05 09:41S 32°53' E 151°45'0 0.0
2018-Jul-05 07:05S 32°53' E 151°45'0 0.0
2018-Jul-05 06:47S 32°53' E 151°45'0 0.0
2018-Jul-05 06:20S 32°53' E 151°45'0 0.0
2018-Jul-05 05:56S 32°53' E 151°45'0 0.0
2018-Jul-05 05:29S 32°53' E 151°45'0 0.0
2018-Jul-05 04:59S 32°53' E 151°45'0 0.0
2018-Jul-05 04:26S 32°53' E 151°45'0 0.0
2018-Jul-05 03:59S 32°53' E 151°45'0 0.0
2018-Jul-05 03:29S 32°53' E 151°45'0 0.0
2018-Jul-05 02:59S 32°53' E 151°45'0 0.0
2018-Jul-05 02:11S 32°53' E 151°45'0 0.0
2018-Jul-05 01:47S 32°53' E 151°45'0 0.0
2018-Jul-05 01:29S 32°53' E 151°45'0 0.0
2018-Jul-05 00:59S 32°53' E 151°45'0 0.0
2018-Jul-05 00:29S 32°53' E 151°45'0 0.0
2018-Jul-04 23:59S 32°53' E 151°45'0 0.0
2018-Jul-04 23:29S 32°53' E 151°45'0 0.0
2018-Jul-04 22:59S 32°53' E 151°45'0 0.0
2018-Jul-04 22:29S 32°53' E 151°45'0 0.0
2018-Jul-04 21:59S 32°53' E 151°45'0 0.0
2018-Jul-04 21:29S 32°53' E 151°45'0 0.0
2018-Jul-04 20:59S 32°53' E 151°45'0 0.0
2018-Jul-04 20:29S 32°53' E 151°45'0 0.0
2018-Jul-04 19:59S 32°53' E 151°45'0 0.0
2018-Jul-04 19:23S 32°53' E 151°45'0 0.0
2018-Jul-04 18:59S 32°53' E 151°45'0 0.0
2018-Jul-04 18:29S 32°53' E 151°45'0 0.0
2018-Jul-04 17:47S 32°53' E 151°45'0 0.0
2018-Jul-04 17:29S 32°53' E 151°45'0 0.0
2018-Jul-04 16:47S 32°53' E 151°45'0 0.0
2018-Jul-04 16:29S 32°53' E 151°45'0 0.0
2018-Jul-04 15:56S 32°53' E 151°45'0 0.0
2018-Jul-04 15:29S 32°53' E 151°45'0 0.0
2018-Jul-04 14:59S 32°53' E 151°45'0 0.0
2018-Jul-04 14:29S 32°53' E 151°45'0 0.0
2018-Jul-04 13:59S 32°53' E 151°45'0 0.0
2018-Jul-04 13:26S 32°53' E 151°45'0 0.0
2018-Jul-04 12:59S 32°53' E 151°45'0 0.0
2018-Jul-04 12:23S 32°53' E 151°45'0 0.0
2018-Jul-04 11:59S 32°53' E 151°45'0 0.0
2018-Jul-04 11:29S 32°53' E 151°45'0 0.0
2018-Jul-04 10:56S 32°53' E 151°45'0 0.0
2018-Jul-04 10:29S 32°53' E 151°45'0 0.0
2018-Jul-04 09:59S 32°53' E 151°45'0 0.0
2018-Jul-04 09:29S 32°53' E 151°45'1 1.6
2018-Jul-04 09:00S 32°53' E 151°46'2 4.1
2018-Jul-04 08:30S 32°55' E 151°48'4 9.0
2018-Jul-04 08:01S 32°58' E 151°52'3 5.9
2018-Jul-04 07:30S 33°01' E 151°52'4 8.3
2018-Jul-04 07:00S 33°05' E 151°52'5 0.9
2018-Jul-04 01:48S 33°08' E 151°56'1 1.9
2018-Jul-04 01:26S 33°07' E 151°57'1 1.9
2018-Jul-04 01:00S 33°07' E 151°57'1 2.0
2018-Jul-04 00:30S 33°06' E 151°58'3 6.0
2018-Jul-03 23:57S 33°02' E 151°58'4 8.4
2018-Jul-03 23:30S 32°59' E 151°58'611.7
2018-Jul-03 23:00S 32°58' E 152°05'612.8
2018-Jul-03 22:30S 32°55' E 152°12'612.9
2018-Jul-03 22:00S 32°52' E 152°19'612.6
2018-Jul-03 21:30S 32°49' E 152°25'612.8
2018-Jul-03 21:00S 32°45' E 152°32'612.6
2018-Jul-03 20:30S 32°41' E 152°37'612.5
2018-Jul-03 20:00S 32°37' E 152°43'612.1
2018-Jul-03 19:29S 32°33' E 152°49'  

Dump ship's entire track history